WetterOnline ( http://www.wetteronline.de )

Wetter aktuell Wadgassen

Aktuelles Wetter: Berus (367m)

6-stündlich | Neueste Meldungen
Ortszeit Temperatur Wetter
So, 24.02. 1:00 2.6° C wolkenlos
Sa, 23.02. 19:00 5.8° C wolkig
Sa, 23.02. 13:00 8.6° C leicht bewölkt
Sa, 23.02. 7:00 2.1° C wolkenlos
Sa, 23.02. 1:00 4.9° C wolkenlos
Fr, 22.02. 19:00 9.6° C wolkig
Fr, 22.02. 13:00 10.7° C bewölkt
Fr, 22.02. 7:00 8.0° C bedeckt
Ortszeit Temperatur Wetter
So, 24.02. 1:30 2.4° C wolkenlos
So, 24.02. 1:20 2.4° C wolkenlos
So, 24.02. 1:10 2.5° C wolkenlos
So, 24.02. 1:00 2.6° C wolkenlos
So, 24.02. 0:40 2.5° C fast wolkenlos
So, 24.02. 0:30 2.5° C wolkenlos
So, 24.02. 0:00 2.9° C fast wolkenlos
Sa, 23.02. 23:30 2.9° C leicht bewölkt
Sa, 23.02. 23:00 2.9° C fast wolkenlos
Sa, 23.02. 22:30 3.2° C fast wolkenlos
Ortszeit Relative Feuchte Sichtweite
So, 24.02. 1:00 47% 45 km
Sa, 23.02. 19:00 52% 40 km
Sa, 23.02. 13:00 47% 50 km
Sa, 23.02. 7:00 90% 16 km
Sa, 23.02. 1:00 84% 20 km
Fr, 22.02. 19:00 64% 50 km
Fr, 22.02. 13:00 74% 19 km
Fr, 22.02. 7:00 85% 10 km
Ortszeit Relative Feuchte Sichtweite
So, 24.02. 1:30 46% 50 km
So, 24.02. 1:20 46% -
So, 24.02. 1:10 46% -
So, 24.02. 1:00 47% 45 km
So, 24.02. 0:40 48% -
So, 24.02. 0:30 50% 50 km
So, 24.02. 0:00 50% 45 km
Sa, 23.02. 23:30 51% 45 km
Sa, 23.02. 23:00 53% 45 km
Sa, 23.02. 22:30 54% 45 km
Ortszeit Niederschlagsmenge Niederschlagsart
So, 24.02. 1:00 0.0 l/m2 in 6 Std. -
Sa, 23.02. 19:00 0.0 l/m2 in 12 Std. -
Sa, 23.02. 13:00 0.0 l/m2 in 6 Std. -
Sa, 23.02. 7:00 0.0 l/m2 in 12 Std. -
Sa, 23.02. 1:00 0.0 l/m2 in 6 Std. -
Fr, 22.02. 19:00 0.0 l/m2 in 12 Std. -
Fr, 22.02. 13:00 0.0 l/m2 in 6 Std. -
Fr, 22.02. 7:00 0.1 l/m2 in 12 Std. Regen
Ortszeit Niederschlagsmenge Niederschlagsart
So, 24.02. 1:30 0.0 l/m2 in 1 Std. -
So, 24.02. 1:20 keine Meldung -
So, 24.02. 1:10 keine Meldung -
So, 24.02. 1:00 0.0 l/m2 in 1 Std. -
So, 24.02. 0:40 keine Meldung -
So, 24.02. 0:30 0.0 l/m2 in 1 Std. -
So, 24.02. 0:00 0.0 l/m2 in 1 Std. -
Sa, 23.02. 23:30 0.0 l/m2 in 1 Std. -
Sa, 23.02. 23:00 0.0 l/m2 in 1 Std. -
Sa, 23.02. 22:30 0.0 l/m2 in 1 Std. -
Ortszeit Stärke Spitze Richtung
km/h Bft. km/h Grad Sektor
So, 24.02. 1:00 25 4 36 40° NO
Sa, 23.02. 19:00 24 4 43 40° NO
Sa, 23.02. 13:00 20 4 43 50° NO
Sa, 23.02. 7:00 22 4 32 50° NO
Sa, 23.02. 1:00 18 3 32 40° NO
Fr, 22.02. 19:00 17 3 28 50° NO
Fr, 22.02. 13:00 7 2 18 40° NO
Fr, 22.02. 7:00 9 2 17 340° N
Ortszeit Stärke Spitze Richtung
km/h Bft. km/h Grad Sektor
So, 24.02. 1:30 28 4 35 40° NO
So, 24.02. 1:20 28 4 - 40° NO
So, 24.02. 1:10 26 4 - 40° NO
So, 24.02. 1:00 25 4 36 40° NO
So, 24.02. 0:40 24 4 - 40° NO
So, 24.02. 0:30 25 4 36 40° NO
So, 24.02. 0:00 25 4 36 40° NO
Sa, 23.02. 23:30 26 4 35 40° NO
Sa, 23.02. 23:00 25 4 36 40° NO
Sa, 23.02. 22:30 26 4 33 40° NO
Ortszeit Untergrenze Bedeckung Gattung
total tief tief mittel hoch
So, 24.02. 1:00 - 0/8 0/8 - - -
Sa, 23.02. 19:00 9000 m 8/8 0/8 - - -
Sa, 23.02. 13:00 9000 m 7/8 0/8 - - -
Sa, 23.02. 7:00 - 0/8 0/8 - - -
Sa, 23.02. 1:00 - 0/8 0/8 - - -
Fr, 22.02. 19:00 990 m 7/8 3/8 - - -
Fr, 22.02. 13:00 420 m 7/8 7/8 - - -
Fr, 22.02. 7:00 420 m 8/8 8/8 - - -
Ortszeit Bedeckungsgrad in Achtel und Wolkenuntergrenze
So, 24.02. 1:30 keine Wolken
So, 24.02. 1:20 keine Wolken
So, 24.02. 1:10 keine Wolken
So, 24.02. 1:00 keine Wolken
So, 24.02. 0:40 1(9000m)
So, 24.02. 0:30 keine Wolken
So, 24.02. 0:00 1(9000m)
Sa, 23.02. 23:30 6(9000m)
Sa, 23.02. 23:00 1(9000m) 3(9000m)
Sa, 23.02. 22:30 1(9000m) 2(9000m)
Ortszeit Luftdruck NN (hPa) Tendenz (hPa in 3 Std.)
So, 24.02. 1:00 1037 - 0,1
Sa, 23.02. 19:00 1037 + 0,7
Sa, 23.02. 13:00 1037 - 0,3
Sa, 23.02. 7:00 1038 - 0,6
Sa, 23.02. 1:00 1038 - 0,2
Fr, 22.02. 19:00 1036 + 0,3
Fr, 22.02. 13:00 1036 + 0,8
Fr, 22.02. 7:00 1034 + 0,9
Ortszeit Luftdruck NN (hPa) Tendenz (hPa in 3 Std.)
So, 24.02. 1:30 1037 - 0,1
So, 24.02. 1:20 1037 keine Meldung
So, 24.02. 1:10 1037 keine Meldung
So, 24.02. 1:00 1037 - 0,1
So, 24.02. 0:40 1037 keine Meldung
So, 24.02. 0:30 1037 - 0,1
So, 24.02. 0:00 1037 - 0,1
Sa, 23.02. 23:30 1037 - 0,1
Sa, 23.02. 23:00 1037 - 0,1
Sa, 23.02. 22:30 1037 + 0,2
Ortszeit Schneehöhe (cm)
So, 24.02. 1:00 0
Sa, 23.02. 19:00 0
Sa, 23.02. 13:00 0
Sa, 23.02. 7:00 0
Sa, 23.02. 1:00 0
Fr, 22.02. 19:00 0
Fr, 22.02. 13:00 0
Fr, 22.02. 7:00 0
Ortszeit Schneehöhe (cm)
So, 24.02. 1:30 0
So, 24.02. 1:20 0
So, 24.02. 1:10 0
So, 24.02. 1:00 0
So, 24.02. 0:40 0
So, 24.02. 0:30 0
So, 24.02. 0:00 0
Sa, 23.02. 23:30 0
Sa, 23.02. 23:00 0
Sa, 23.02. 22:30 0
Link zu dieser Seite / Seite empfehlen

Das Wetter in ...